logo
Search for airport 
image banner adimage banner adimage banner ad
image banner ad

TRPG - Gerald's/John A. Osborne - Intl

Located in Little Bay, Montserrat

ICAO - TRPG, IATA - MNI

Data provided by Airmate  

General information

Coordinates: N16°47'29" W62°11'36"
Elevation is 550 feet MSL.
 
View others Airports in (unassigned)

Operational data

Special qualification required
Current time UTC:
Current local time:
Weather
METAR: TRPG 021200Z 09012KT 9999 SCT019 SCT044 24/21 Q1020
TAF: TAF TRPG 021100Z 0212/0312 06010KT 9999 SCT022 PROB30 TEMPO 0212/0218 SHRA
View NOTAMs / SUP AIP / TFR affecting this airport [VIEW]
Communications frequencies: [VIEW]

Runways:

RWY identifierQFULength (ft)Width (ft)SurfaceLDA (ft)
1090°195559ASP
28270°195559ASP

Airport contact information

Address: Little Bay Montserrat

Satellite view of TRPG